Time;durP1;ratioP1;P1;durP2;ratioP2;P2;SDS_P1;SDS_P2;PMS_P1;PMS_P2;Temp;Humidity;BMP_temperature;BMP_pressure;BME280_temperature;BME280_humidity;BME280_pressure;Samples;Min_cycle;Max_cycle;Signal;HPM_P1;HPM_P2
2023/01/26 00:00:50;;;;;;;;;;;7.60;99.90;;;;;;5119712;28;19920;-52
2023/01/26 00:03:15;;;;;;;;;;;7.60;99.90;;;;;;5119985;28;20275;-55
2023/01/26 00:05:41;;;;;;;;;;;7.60;99.90;;;;;;5119684;28;19922;-55
2023/01/26 00:08:07;;;;;;;;;;;7.60;99.90;;;;;;5119620;28;19918;-54
2023/01/26 00:10:38;;;;;;;;;;;7.60;99.90;;;;;;5119436;28;20010;-51
2023/01/26 00:13:05;;;;;;;;;;;7.60;99.90;;;;;;5119546;28;20379;-53
2023/01/26 00:15:32;;;;;;;;;;;7.60;99.90;;;;;;5119632;28;19914;-54
2023/01/26 00:17:57;;;;;;;;;;;7.70;99.90;;;;;;5120086;28;19908;-51
2023/01/26 00:20:23;;;;;;;;;;;7.70;99.90;;;;;;5119705;28;19915;-55
2023/01/26 00:22:48;;;;;;;;;;;7.70;99.90;;;;;;5119380;28;20609;-52
2023/01/26 00:25:14;;;;;;;;;;;7.60;99.90;;;;;;5119552;28;19911;-54
2023/01/26 00:27:40;;;;;;;;;;;7.60;99.90;;;;;;5119226;28;19922;-53
2023/01/26 00:30:05;;;;;;;;;;;7.60;99.90;;;;;;5119451;28;19920;-51
2023/01/26 00:32:33;;;;;;;;;;;7.60;99.90;;;;;;5119159;28;19908;-55
2023/01/26 00:34:59;;;;;;;;;;;7.60;99.90;;;;;;5119382;28;19911;-54
2023/01/26 00:37:24;;;;;;;;;;;7.60;99.90;;;;;;5119100;28;19914;-52
2023/01/26 00:39:50;;;;;;;;;;;7.60;99.90;;;;;;5119120;28;19911;-53
2023/01/26 00:42:15;;;;;;;;;;;7.60;99.90;;;;;;5119188;28;19912;-54
2023/01/26 00:44:41;;;;;;;;;;;7.60;99.90;;;;;;5119174;28;20006;-53
2023/01/26 00:47:08;;;;;;;;;;;7.60;99.90;;;;;;5118949;28;19918;-55
2023/01/26 00:49:34;;;;;;;;;;;7.60;99.90;;;;;;5119150;28;19915;-53
2023/01/26 00:51:59;;;;;;;;;;;7.70;99.90;;;;;;5118927;28;19912;-53
2023/01/26 00:54:26;;;;;;;;;;;7.70;99.90;;;;;;5119087;28;19931;-53
2023/01/26 00:56:52;;;;;;;;;;;7.70;99.90;;;;;;5118967;28;19914;-52
2023/01/26 00:59:17;;;;;;;;;;;7.70;99.90;;;;;;5118749;28;19912;-53
2023/01/26 01:01:43;;;;;;;;;;;7.60;99.90;;;;;;5118809;28;20385;-54
2023/01/26 01:04:09;;;;;;;;;;;7.60;99.90;;;;;;5118208;28;19978;-55
2023/01/26 01:06:34;;;;;;;;;;;7.70;99.90;;;;;;5118480;28;19918;-55
2023/01/26 01:09:00;;;;;;;;;;;7.60;99.90;;;;;;5118381;28;19947;-55
2023/01/26 01:11:25;;;;;;;;;;;7.60;99.90;;;;;;5118974;28;19980;-53
2023/01/26 01:13:51;;;;;;;;;;;7.60;99.90;;;;;;5118656;28;19907;-53
2023/01/26 01:16:17;;;;;;;;;;;7.60;99.90;;;;;;5118798;28;19912;-52
2023/01/26 01:18:43;;;;;;;;;;;7.60;99.90;;;;;;5118488;28;19930;-54
2023/01/26 01:21:09;;;;;;;;;;;7.50;99.90;;;;;;5118283;28;19958;-55
2023/01/26 01:23:35;;;;;;;;;;;7.50;99.90;;;;;;5119153;28;19911;-52
2023/01/26 01:26:01;;;;;;;;;;;7.50;99.90;;;;;;5118390;28;19918;-51
2023/01/26 01:28:26;;;;;;;;;;;7.40;99.90;;;;;;5118533;28;19908;-53
2023/01/26 01:30:52;;;;;;;;;;;7.40;99.90;;;;;;5118381;28;19908;-53
2023/01/26 01:33:18;;;;;;;;;;;7.30;99.90;;;;;;5118336;28;19908;-55
2023/01/26 01:35:43;;;;;;;;;;;7.30;99.90;;;;;;5118621;28;19915;-54
2023/01/26 01:38:09;;;;;;;;;;;;;;;;;;5118496;28;19960;-53
2023/01/26 01:40:35;;;;;;;;;;;7.20;99.90;;;;;;5121709;28;19908;-55
2023/01/26 01:43:00;;;;;;;;;;;7.20;99.90;;;;;;5122590;28;19915;-55
2023/01/26 01:45:27;;;;;;;;;;;7.30;99.90;;;;;;5122124;28;19908;-54
2023/01/26 01:47:57;;;;;;;;;;;7.30;99.90;;;;;;5122516;28;20003;-54
2023/01/26 01:50:23;;;;;;;;;;;7.50;99.90;;;;;;5122600;28;20392;-56
2023/01/26 01:52:50;;;;;;;;;;;7.60;99.90;;;;;;5122289;28;20362;-54
2023/01/26 01:55:15;;;;;;;;;;;7.60;99.90;;;;;;5122446;28;19908;-55
2023/01/26 01:57:43;;;;;;;;;;;7.60;99.90;;;;;;5122649;28;20377;-56
2023/01/26 02:00:10;;;;;;;;;;;7.60;99.90;;;;;;5121988;28;20379;-56
2023/01/26 02:02:36;;;;;;;;;;;7.80;99.90;;;;;;5122133;28;20363;-55
2023/01/26 02:05:23;;;;;;;;;;;8.00;99.90;;;;;;5121876;28;19957;-55
2023/01/26 02:07:49;;;;;;;;;;;8.00;99.90;;;;;;5122230;28;19916;-56
2023/01/26 02:10:19;;;;;;;;;;;8.10;99.90;;;;;;5121982;28;19907;-55
2023/01/26 02:12:50;;;;;;;;;;;8.20;99.90;;;;;;5121961;28;19970;-54
2023/01/26 02:15:16;;;;;;;;;;;8.30;99.90;;;;;;5122138;28;19907;-55
2023/01/26 02:17:41;;;;;;;;;;;8.40;99.90;;;;;;5122075;28;19915;-52
2023/01/26 02:20:18;;;;;;;;;;;8.50;99.90;;;;;;5122032;28;19907;-54
2023/01/26 02:22:52;;;;;;;;;;;8.50;99.90;;;;;;5121803;28;19994;-53
2023/01/26 02:25:44;;;;;;;;;;;8.60;99.90;;;;;;5122144;28;19974;-55
2023/01/26 02:28:10;;;;;;;;;;;8.60;99.90;;;;;;5097546;28;19955;-56
2023/01/26 02:30:35;;;;;;;;;;;8.60;99.90;;;;;;5121793;28;19915;-56
2023/01/26 02:33:01;;;;;;;;;;;8.60;99.90;;;;;;5121812;28;20036;-56
2023/01/26 02:35:26;;;;;;;;;;;8.60;99.90;;;;;;5121718;28;20368;-55
2023/01/26 02:37:52;;;;;;;;;;;8.80;99.90;;;;;;5121526;28;19907;-55
2023/01/26 02:40:30;;;;;;;;;;;8.70;99.90;;;;;;5121615;28;20363;-56
2023/01/26 02:42:56;;;;;;;;;;;8.70;99.90;;;;;;5121604;28;19943;-56
2023/01/26 02:45:22;;;;;;;;;;;8.80;99.90;;;;;;5121554;28;19915;-54
2023/01/26 02:47:48;;;;;;;;;;;8.80;99.90;;;;;;5121313;28;19970;-53
2023/01/26 02:50:14;;;;;;;;;;;8.70;99.90;;;;;;5120112;28;20456;-55
2023/01/26 02:52:39;;;;;;;;;;;8.80;99.90;;;;;;5120194;28;20367;-55
2023/01/26 02:55:24;;;;;;;;;;;8.80;99.90;;;;;;5121154;28;19908;-55
2023/01/26 02:58:01;;;;;;;;;;;8.90;99.90;;;;;;5121043;28;19908;-54
2023/01/26 03:00:28;;;;;;;;;;;8.30;99.90;;;;;;5120970;28;19941;-53
2023/01/26 03:02:58;;;;;;;;;;;8.70;99.90;;;;;;5121037;28;19915;-57
2023/01/26 03:05:24;;;;;;;;;;;8.60;99.90;;;;;;5121111;28;20355;-56
2023/01/26 03:07:50;;;;;;;;;;;8.50;99.90;;;;;;5120866;28;19964;-52
2023/01/26 03:10:16;;;;;;;;;;;8.50;99.90;;;;;;5121141;28;19908;-56
2023/01/26 03:12:41;;;;;;;;;;;8.30;99.90;;;;;;5120989;28;19908;-54
2023/01/26 03:27:25;;;;;;;;;;;8.30;99.90;;;;;;5121050;28;19962;-55
2023/01/26 03:28:57;;;;;;;;;;;8.30;99.90;;;;;;5120569;28;19915;-54
2023/01/26 03:31:23;;;;;;;;;;;8.30;99.90;;;;;;5120642;28;19908;-55
2023/01/26 03:33:48;;;;;;;;;;;8.20;99.90;;;;;;5120606;28;19907;-56
2023/01/26 03:36:14;;;;;;;;;;;8.20;99.90;;;;;;5121138;28;19915;-50
2023/01/26 03:38:40;;;;;;;;;;;8.20;99.90;;;;;;5120484;28;19919;-55
2023/01/26 03:57:30;;;;;;;;;;;8.10;99.90;;;;;;5120203;28;19919;-56
2023/01/26 03:59:56;;;;;;;;;;;8.00;99.90;;;;;;5119806;28;19920;-55
2023/01/26 04:10:34;;;;;;;;;;;8.00;99.90;;;;;;5119968;28;19999;-54
2023/01/26 04:21:31;;;;;;;;;;;8.00;99.90;;;;;;5119318;28;19961;-56
2023/01/26 04:23:57;;;;;;;;;;;8.00;99.90;;;;;;5119870;28;19907;-56
2023/01/26 04:26:23;;;;;;;;;;;7.90;99.90;;;;;;5119371;28;20426;-53
2023/01/26 04:28:49;;;;;;;;;;;8.00;99.90;;;;;;5117939;28;20381;-56
2023/01/26 04:31:15;;;;;;;;;;;7.90;99.90;;;;;;5119481;28;19907;-54
2023/01/26 04:33:41;;;;;;;;;;;7.90;99.90;;;;;;5119435;28;19915;-56
2023/01/26 04:36:07;;;;;;;;;;;7.90;99.90;;;;;;5119523;28;20252;-56
2023/01/26 04:38:33;;;;;;;;;;;7.90;99.90;;;;;;5119147;28;19951;-54
2023/01/26 04:40:59;;;;;;;;;;;7.90;99.90;;;;;;5119576;28;19907;-53
2023/01/26 04:43:24;;;;;;;;;;;7.90;99.90;;;;;;5119193;28;19914;-55
2023/01/26 04:46:10;;;;;;;;;;;7.90;99.90;;;;;;5119264;28;19912;-54
2023/01/26 04:48:36;;;;;;;;;;;7.90;99.90;;;;;;5118539;28;20352;-55
2023/01/26 04:51:03;;;;;;;;;;;7.80;99.90;;;;;;5119139;28;19908;-54
2023/01/26 04:53:30;;;;;;;;;;;7.80;99.90;;;;;;5119204;28;19915;-55
2023/01/26 04:55:55;;;;;;;;;;;7.70;99.90;;;;;;5118847;28;19939;-56
2023/01/26 04:58:21;;;;;;;;;;;7.70;99.90;;;;;;5118899;28;19995;-54
2023/01/26 05:00:53;;;;;;;;;;;7.70;99.90;;;;;;5118491;28;19926;-55
2023/01/26 05:03:19;;;;;;;;;;;7.60;99.90;;;;;;5118567;28;20339;-55
2023/01/26 05:05:46;;;;;;;;;;;7.60;99.90;;;;;;5118608;28;19977;-55
2023/01/26 05:08:12;;;;;;;;;;;7.50;99.90;;;;;;5118890;28;20351;-56
2023/01/26 05:10:38;;;;;;;;;;;7.40;99.90;;;;;;5118824;28;19930;-53
2023/01/26 05:13:03;;;;;;;;;;;7.30;99.90;;;;;;5118729;28;19907;-54
2023/01/26 05:15:29;;;;;;;;;;;7.20;99.90;;;;;;5118012;28;19914;-54
2023/01/26 05:17:56;;;;;;;;;;;7.10;99.90;;;;;;5118558;28;19908;-55
2023/01/26 05:20:22;;;;;;;;;;;7.00;99.90;;;;;;5118484;28;19956;-53
2023/01/26 05:22:47;;;;;;;;;;;7.00;99.90;;;;;;5118666;28;19907;-55
2023/01/26 05:25:13;;;;;;;;;;;6.90;99.90;;;;;;5118432;28;19908;-55
2023/01/26 05:27:38;;;;;;;;;;;6.80;99.90;;;;;;5118679;28;19915;-50
2023/01/26 05:30:04;;;;;;;;;;;6.80;99.90;;;;;;5118602;28;19908;-55
2023/01/26 05:32:30;;;;;;;;;;;6.70;99.90;;;;;;5118171;28;19911;-55
2023/01/26 05:34:56;;;;;;;;;;;6.70;99.90;;;;;;5118335;28;19915;-52
2023/01/26 05:37:25;;;;;;;;;;;6.60;99.90;;;;;;5118515;28;20007;-55
2023/01/26 05:39:51;;;;;;;;;;;6.50;99.90;;;;;;5118311;28;20386;-55
2023/01/26 05:42:17;;;;;;;;;;;6.50;99.90;;;;;;5118326;28;19915;-55
2023/01/26 05:44:42;;;;;;;;;;;6.50;99.90;;;;;;5118448;28;19908;-53
2023/01/26 05:47:09;;;;;;;;;;;6.40;99.90;;;;;;5118494;28;20348;-55
2023/01/26 05:49:37;;;;;;;;;;;6.50;99.90;;;;;;5118406;28;20248;-55
2023/01/26 05:52:06;;;;;;;;;;;6.40;99.90;;;;;;5118216;28;19907;-55
2023/01/26 05:54:32;;;;;;;;;;;6.50;99.90;;;;;;5118172;28;20346;-51
2023/01/26 05:56:58;;;;;;;;;;;6.40;99.90;;;;;;5118393;28;19960;-53
2023/01/26 05:59:23;;;;;;;;;;;6.50;99.90;;;;;;5117980;28;19935;-55
2023/01/26 06:01:49;;;;;;;;;;;6.40;99.90;;;;;;5118473;28;19915;-53
2023/01/26 06:04:14;;;;;;;;;;;6.40;99.90;;;;;;5118074;28;19976;-51
2023/01/26 06:06:40;;;;;;;;;;;6.50;99.90;;;;;;5118213;28;19923;-53
2023/01/26 06:09:05;;;;;;;;;;;6.40;99.90;;;;;;5118005;28;19997;-56
2023/01/26 06:11:33;;;;;;;;;;;6.40;99.90;;;;;;5117335;28;20215;-51
2023/01/26 06:13:59;;;;;;;;;;;6.40;99.90;;;;;;5117982;28;19925;-54
2023/01/26 06:16:24;;;;;;;;;;;6.30;99.90;;;;;;5118048;28;19914;-55
2023/01/26 06:18:50;;;;;;;;;;;6.20;99.90;;;;;;5118128;28;19978;-54
2023/01/26 06:21:15;;;;;;;;;;;6.30;99.90;;;;;;5118414;28;20010;-54
2023/01/26 06:23:41;;;;;;;;;;;6.30;99.90;;;;;;5117918;28;19916;-55
2023/01/26 06:26:07;;;;;;;;;;;6.30;99.90;;;;;;5119826;28;19912;-52
2023/01/26 06:28:34;;;;;;;;;;;6.20;99.90;;;;;;5121646;28;19908;-54
2023/01/26 06:31:01;;;;;;;;;;;6.20;99.90;;;;;;5121666;28;19926;-54
2023/01/26 06:33:26;;;;;;;;;;;6.10;99.90;;;;;;5121630;28;20335;-55
2023/01/26 06:35:54;;;;;;;;;;;6.20;99.90;;;;;;5121979;28;19908;-53
2023/01/26 06:38:20;;;;;;;;;;;6.20;99.90;;;;;;5121696;28;19907;-54
2023/01/26 06:40:46;;;;;;;;;;;6.20;99.90;;;;;;5120008;28;19915;-55
2023/01/26 06:43:11;;;;;;;;;;;6.20;99.90;;;;;;5121907;28;19912;-54
2023/01/26 06:45:37;;;;;;;;;;;6.20;99.90;;;;;;5121357;28;19915;-55
2023/01/26 06:48:03;;;;;;;;;;;6.30;99.90;;;;;;5121736;28;20402;-55
2023/01/26 06:50:32;;;;;;;;;;;6.30;99.90;;;;;;5121506;28;19915;-55
2023/01/26 06:52:59;;;;;;;;;;;6.30;99.90;;;;;;5121406;28;19930;-55
2023/01/26 06:55:36;;;;;;;;;;;6.20;99.90;;;;;;5121178;28;19912;-54
2023/01/26 06:58:01;;;;;;;;;;;6.20;99.90;;;;;;5121289;28;19990;-57
2023/01/26 07:00:27;;;;;;;;;;;6.20;99.90;;;;;;5120873;28;19943;-56
2023/01/26 07:02:53;;;;;;;;;;;6.10;99.90;;;;;;5121098;28;19912;-55
2023/01/26 07:05:18;;;;;;;;;;;6.10;99.90;;;;;;5121266;28;19961;-55
2023/01/26 07:07:44;;;;;;;;;;;6.00;99.90;;;;;;5121297;28;19911;-55
2023/01/26 07:10:09;;;;;;;;;;;5.40;99.90;;;;;;5120898;28;20421;-53
2023/01/26 07:12:38;;;;;;;;;;;6.00;99.90;;;;;;5121026;28;19915;-55
2023/01/26 07:15:04;;;;;;;;;;;6.00;99.90;;;;;;5120795;28;19908;-55
2023/01/26 07:17:30;;;;;;;;;;;6.00;99.90;;;;;;5121174;28;19908;-55
2023/01/26 07:19:56;;;;;;;;;;;6.00;99.90;;;;;;5120721;28;19908;-53
2023/01/26 07:22:21;;;;;;;;;;;5.90;99.90;;;;;;5120654;28;20381;-54
2023/01/26 07:24:47;;;;;;;;;;;5.90;99.90;;;;;;5120407;28;19957;-53
2023/01/26 07:27:12;;;;;;;;;;;6.00;99.90;;;;;;5120681;28;19918;-55
2023/01/26 07:29:38;;;;;;;;;;;5.90;99.90;;;;;;5120094;28;19939;-56
2023/01/26 07:32:04;;;;;;;;;;;6.00;99.90;;;;;;5120320;28;19921;-55
2023/01/26 07:34:29;;;;;;;;;;;6.00;99.90;;;;;;5120817;28;20367;-55
2023/01/26 07:36:55;;;;;;;;;;;6.00;99.90;;;;;;5119561;28;19918;-51
2023/01/26 07:39:20;;;;;;;;;;;6.00;99.90;;;;;;5120431;28;20267;-55
2023/01/26 07:41:47;;;;;;;;;;;5.90;99.90;;;;;;5120424;28;19912;-53
2023/01/26 07:44:13;;;;;;;;;;;6.00;99.90;;;;;;5120630;28;19908;-55
2023/01/26 07:46:40;;;;;;;;;;;5.90;99.90;;;;;;5120017;28;19985;-56
2023/01/26 07:49:06;;;;;;;;;;;5.90;99.90;;;;;;5119901;28;19907;-56
2023/01/26 07:51:31;;;;;;;;;;;5.90;99.90;;;;;;5120054;28;19915;-56
2023/01/26 07:53:57;;;;;;;;;;;5.90;99.90;;;;;;5120080;28;19908;-54
2023/01/26 07:56:23;;;;;;;;;;;5.90;99.90;;;;;;5120089;28;20378;-55
2023/01/26 07:58:52;;;;;;;;;;;5.90;99.90;;;;;;5119849;28;20431;-55
2023/01/26 08:01:18;;;;;;;;;;;5.90;99.90;;;;;;5118088;28;20027;-56
2023/01/26 08:03:44;;;;;;;;;;;5.90;99.90;;;;;;5119941;28;19951;-55
2023/01/26 08:06:10;;;;;;;;;;;5.90;99.90;;;;;;5119536;28;20274;-55
2023/01/26 08:08:38;;;;;;;;;;;5.90;99.90;;;;;;5119855;28;20310;-56
2023/01/26 08:11:04;;;;;;;;;;;5.90;99.90;;;;;;5119541;28;19915;-55
2023/01/26 08:13:30;;;;;;;;;;;5.90;99.90;;;;;;5119793;28;19907;-53
2023/01/26 08:16:03;;;;;;;;;;;5.90;99.90;;;;;;5119706;28;19908;-53
2023/01/26 08:18:29;;;;;;;;;;;6.00;99.90;;;;;;5119273;28;20275;-55
2023/01/26 08:20:56;;;;;;;;;;;6.00;99.90;;;;;;5119089;28;19915;-55
2023/01/26 08:23:22;;;;;;;;;;;6.20;99.90;;;;;;5119428;28;20274;-56
2023/01/26 08:25:48;;;;;;;;;;;6.10;99.90;;;;;;5119116;28;19958;-55
2023/01/26 08:28:13;;;;;;;;;;;6.20;99.90;;;;;;5119667;28;19907;-55
2023/01/26 08:30:39;;;;;;;;;;;6.20;99.90;;;;;;5119316;28;19908;-53
2023/01/26 08:33:05;;;;;;;;;;;6.30;99.90;;;;;;5119323;28;19908;-56
2023/01/26 08:35:31;;;;;;;;;;;6.30;99.90;;;;;;5119271;28;20666;-55
2023/01/26 08:37:57;;;;;;;;;;;6.40;99.90;;;;;;5119014;28;19987;-55
2023/01/26 08:40:23;;;;;;;;;;;6.50;99.90;;;;;;5119229;28;20440;-56
2023/01/26 08:42:49;;;;;;;;;;;6.50;99.90;;;;;;5118857;28;19908;-55
2023/01/26 08:45:15;;;;;;;;;;;6.60;99.90;;;;;;5119225;28;20279;-52
2023/01/26 08:47:41;;;;;;;;;;;6.70;99.90;;;;;;5119048;28;19915;-55
2023/01/26 08:50:07;;;;;;;;;;;6.90;99.90;;;;;;5119043;28;19908;-57
2023/01/26 08:52:32;;;;;;;;;;;6.90;99.90;;;;;;5119270;28;19914;-56
2023/01/26 08:54:59;;;;;;;;;;;7.00;99.90;;;;;;5118762;28;19990;-54
2023/01/26 08:57:25;;;;;;;;;;;7.20;99.90;;;;;;5118136;28;20330;-56
2023/01/26 08:59:51;;;;;;;;;;;7.70;99.90;;;;;;5118460;28;19942;-60
2023/01/26 09:02:18;;;;;;;;;;;8.20;99.90;;;;;;5118378;28;20371;-60
2023/01/26 09:04:44;;;;;;;;;;;8.40;99.90;;;;;;5118898;28;19915;-60
2023/01/26 09:07:10;;;;;;;;;;;8.60;99.90;;;;;;5118990;28;19911;-60
2023/01/26 09:09:35;;;;;;;;;;;8.50;99.90;;;;;;5118519;28;19954;-60
2023/01/26 09:12:01;;;;;;;;;;;8.80;99.90;;;;;;5118969;28;19907;-60
2023/01/26 09:14:27;;;;;;;;;;;9.00;99.90;;;;;;5118503;28;20297;-60
2023/01/26 09:16:53;;;;;;;;;;;9.20;99.90;;;;;;5118317;28;19967;-60
2023/01/26 09:19:18;;;;;;;;;;;9.40;99.90;;;;;;5118687;28;20327;-60
2023/01/26 09:21:44;;;;;;;;;;;9.90;99.90;;;;;;5117064;28;19971;-60
2023/01/26 09:24:10;;;;;;;;;;;10.10;99.90;;;;;;5118506;28;19951;-60
2023/01/26 09:26:35;;;;;;;;;;;9.90;99.90;;;;;;5118641;28;19998;-60
2023/01/26 09:29:01;;;;;;;;;;;9.60;99.90;;;;;;5118434;28;19908;-60
2023/01/26 09:31:27;;;;;;;;;;;9.50;99.90;;;;;;5116977;28;19908;-60
2023/01/26 09:33:52;;;;;;;;;;;9.30;99.90;;;;;;5118504;28;19953;-60
2023/01/26 09:36:18;;;;;;;;;;;9.30;99.90;;;;;;5118083;28;19908;-60
2023/01/26 09:38:44;;;;;;;;;;;9.20;99.90;;;;;;5118467;28;19939;-59
2023/01/26 09:41:18;;;;;;;;;;;9.40;99.90;;;;;;5118555;28;19921;-60
2023/01/26 09:43:47;;;;;;;;;;;9.40;99.90;;;;;;5117834;28;19908;-59
2023/01/26 09:46:16;;;;;;;;;;;9.50;99.90;;;;;;5118197;28;19918;-60
2023/01/26 09:48:51;;;;;;;;;;;9.60;99.90;;;;;;5118314;28;19950;-60
2023/01/26 09:51:22;;;;;;;;;;;9.80;99.90;;;;;;5118274;28;19986;-60
2023/01/26 09:53:56;;;;;;;;;;;9.70;99.90;;;;;;5117827;28;19908;-60
2023/01/26 09:56:24;;;;;;;;;;;9.80;99.90;;;;;;5118196;28;19930;-61
2023/01/26 09:58:53;;;;;;;;;;;9.80;99.90;;;;;;5117747;28;19908;-60
2023/01/26 10:01:45;;;;;;;;;;;9.90;99.90;;;;;;5120245;28;19927;-60
2023/01/26 10:04:37;;;;;;;;;;;10.10;99.90;;;;;;5098010;28;19919;-60
2023/01/26 10:07:10;;;;;;;;;;;9.90;99.90;;;;;;5118766;28;19962;-60
2023/01/26 10:09:37;;;;;;;;;;;9.90;99.90;;;;;;5122328;28;19947;-60
2023/01/26 10:12:07;;;;;;;;;;;10.00;99.90;;;;;;5121849;28;19956;-60
2023/01/26 10:14:44;;;;;;;;;;;10.20;99.90;;;;;;5122095;28;19908;-60
2023/01/26 10:17:14;;;;;;;;;;;10.20;99.90;;;;;;5121768;28;20385;-60
2023/01/26 10:19:40;;;;;;;;;;;10.40;99.90;;;;;;5121918;28;19912;-60
2023/01/26 10:22:19;;;;;;;;;;;10.80;99.90;;;;;;5122014;28;19933;-60
2023/01/26 10:24:49;;;;;;;;;;;10.70;99.90;;;;;;5121511;28;19908;-60
2023/01/26 10:27:14;;;;;;;;;;;11.50;99.90;;;;;;5121770;28;20376;-60
2023/01/26 10:29:40;;;;;;;;;;;11.70;99.90;;;;;;5099599;28;19942;-60
2023/01/26 10:32:12;;;;;;;;;;;12.00;99.90;;;;;;5101044;28;19912;-61
2023/01/26 10:34:39;;;;;;;;;;;12.40;99.90;;;;;;5100478;28;19912;-61
2023/01/26 10:37:17;;;;;;;;;;;13.10;99.90;;;;;;5100775;28;19955;-61
2023/01/26 10:39:59;;;;;;;;;;;13.60;99.90;;;;;;5101083;28;19908;-61
2023/01/26 10:42:32;;;;;;;;;;;13.80;99.90;;;;;;5100617;28;20321;-60
2023/01/26 10:45:00;;;;;;;;;;;14.20;99.90;;;;;;5100617;28;19948;-61
2023/01/26 10:47:26;;;;;;;;;;;15.10;99.90;;;;;;5100827;28;19957;-61
2023/01/26 10:49:52;;;;;;;;;;;16.00;99.90;;;;;;5100716;28;19947;-61
2023/01/26 10:52:20;;;;;;;;;;;16.10;99.90;;;;;;5100113;28;19916;-61
2023/01/26 10:54:47;;;;;;;;;;;16.40;99.90;;;;;;5098541;28;19912;-62
2023/01/26 10:57:26;;;;;;;;;;;16.90;95.70;;;;;;5098781;28;19922;-62
2023/01/26 10:59:52;;;;;;;;;;;17.10;94.90;;;;;;5099582;28;20409;-62
2023/01/26 11:02:30;;;;;;;;;;;17.50;99.00;;;;;;5100415;28;19912;-62
2023/01/26 11:05:05;;;;;;;;;;;17.80;88.80;;;;;;5100586;28;20354;-62
2023/01/26 11:07:33;;;;;;;;;;;18.00;96.30;;;;;;5100362;28;19930;-62
2023/01/26 11:10:15;;;;;;;;;;;18.20;83.40;;;;;;5100714;28;19908;-62
2023/01/26 11:12:41;;;;;;;;;;;18.70;99.90;;;;;;5099163;28;19912;-62
2023/01/26 11:15:17;;;;;;;;;;;18.40;92.00;;;;;;5100554;28;19957;-62
2023/01/26 11:17:47;;;;;;;;;;;18.50;94.10;;;;;;5100173;28;19915;-62
2023/01/26 11:20:28;;;;;;;;;;;18.20;92.90;;;;;;5099855;28;19993;-62
2023/01/26 11:22:54;;;;;;;;;;;17.70;82.90;;;;;;5100346;28;19933;-62
2023/01/26 11:25:25;;;;;;;;;;;17.00;85.30;;;;;;5100098;28;19939;-62
2023/01/26 11:28:20;;;;;;;;;;;16.30;74.80;;;;;;5100180;28;19919;-61
2023/01/26 11:31:05;;;;;;;;;;;15.50;94.20;;;;;;5090709;28;19908;-61
2023/01/26 11:33:37;;;;;;;;;;;14.60;90.60;;;;;;5099862;28;20456;-61
2023/01/26 11:36:09;;;;;;;;;;;14.30;91.40;;;;;;5100112;28;19908;-61
2023/01/26 11:38:39;;;;;;;;;;;13.90;90.70;;;;;;5099832;28;19908;-62
2023/01/26 11:41:31;;;;;;;;;;;13.50;91.20;;;;;;5099989;28;19908;-61
2023/01/26 11:44:04;;;;;;;;;;;12.90;90.30;;;;;;5100133;28;19975;-61
2023/01/26 11:46:30;;;;;;;;;;;12.80;95.60;;;;;;5099935;28;20007;-61
2023/01/26 11:48:55;;;;;;;;;;;12.70;95.60;;;;;;5099497;28;19958;-61
2023/01/26 11:51:40;;;;;;;;;;;12.50;92.10;;;;;;5099521;28;19930;-61
2023/01/26 11:54:18;;;;;;;;;;;12.50;95.10;;;;;;5099575;28;19930;-61
2023/01/26 11:56:43;;;;;;;;;;;12.30;94.80;;;;;;5099504;28;19955;-61
2023/01/26 11:59:09;;;;;;;;;;;12.50;93.90;;;;;;5099379;28;19912;-61
2023/01/26 12:01:39;;;;;;;;;;;12.60;98.30;;;;;;5099294;28;19912;-61
2023/01/26 12:04:05;;;;;;;;;;;12.30;95.00;;;;;;5099575;28;20367;-61
2023/01/26 12:06:35;;;;;;;;;;;12.10;93.90;;;;;;5099222;28;20078;-61
2023/01/26 12:09:35;;;;;;;;;;;11.70;95.70;;;;;;5099275;28;19975;-61
2023/01/26 12:12:03;;;;;;;;;;;11.30;95.40;;;;;;5091299;28;20328;-61
2023/01/26 12:14:33;;;;;;;;;;;11.30;97.10;;;;;;5099305;28;19908;-61
2023/01/26 12:16:58;;;;;;;;;;;11.30;97.00;;;;;;5099482;28;19908;-61
2023/01/26 12:19:25;;;;;;;;;;;11.10;97.60;;;;;;5099032;28;19953;-61
2023/01/26 12:21:53;;;;;;;;;;;11.00;97.90;;;;;;5098637;28;19912;-61
2023/01/26 12:24:33;;;;;;;;;;;11.00;98.00;;;;;;5098605;28;19961;-61
2023/01/26 12:27:01;;;;;;;;;;;11.00;98.50;;;;;;5098607;28;19962;-61
2023/01/26 12:29:29;;;;;;;;;;;11.00;97.90;;;;;;5099077;28;19915;-61
2023/01/26 12:31:57;;;;;;;;;;;11.00;97.60;;;;;;5098782;28;19915;-61
2023/01/26 12:34:25;;;;;;;;;;;10.80;98.20;;;;;;5098974;28;19915;-61
2023/01/26 12:36:58;;;;;;;;;;;10.60;98.30;;;;;;5098869;28;20290;-61
2023/01/26 12:39:30;;;;;;;;;;;10.60;98.60;;;;;;5099160;28;19908;-61
2023/01/26 12:42:08;;;;;;;;;;;10.50;98.60;;;;;;5098566;28;19957;-61
2023/01/26 12:44:49;;;;;;;;;;;10.40;98.10;;;;;;5098270;28;19953;-61
2023/01/26 12:47:32;;;;;;;;;;;10.70;99.10;;;;;;5098550;28;19943;-61
2023/01/26 12:50:07;;;;;;;;;;;10.60;99.40;;;;;;5098115;28;19915;-61
2023/01/26 12:52:39;;;;;;;;;;;10.60;99.30;;;;;;5098353;28;19908;-61
2023/01/26 12:55:17;;;;;;;;;;;10.60;98.20;;;;;;5098790;28;19908;-61
2023/01/26 12:57:49;;;;;;;;;;;10.60;98.70;;;;;;5098374;28;19908;-61
2023/01/26 13:00:19;;;;;;;;;;;10.50;99.20;;;;;;5098239;28;19920;-61
2023/01/26 13:02:47;;;;;;;;;;;10.60;99.10;;;;;;5098423;28;19915;-61
2023/01/26 13:05:24;;;;;;;;;;;10.70;99.00;;;;;;5098158;28;19908;-61
2023/01/26 13:07:49;;;;;;;;;;;10.60;98.60;;;;;;5098008;28;19944;-61
2023/01/26 13:10:18;;;;;;;;;;;10.70;99.20;;;;;;5098412;28;19908;-61
2023/01/26 13:12:49;;;;;;;;;;;10.60;99.10;;;;;;5098002;28;20335;-61
2023/01/26 13:15:15;;;;;;;;;;;10.70;99.00;;;;;;5098253;28;19991;-61
2023/01/26 13:17:47;;;;;;;;;;;10.70;99.40;;;;;;5097900;28;19912;-61
2023/01/26 13:20:24;;;;;;;;;;;10.60;98.80;;;;;;5098148;28;19908;-61
2023/01/26 13:22:50;;;;;;;;;;;10.50;98.00;;;;;;5097288;28;20292;-61
2023/01/26 13:25:19;;;;;;;;;;;10.50;99.30;;;;;;5097807;28;20386;-61
2023/01/26 13:27:55;;;;;;;;;;;10.60;99.20;;;;;;5098260;28;19912;-61
2023/01/26 13:30:24;;;;;;;;;;;10.80;99.60;;;;;;5097770;28;19945;-61
2023/01/26 13:33:01;;;;;;;;;;;11.10;99.90;;;;;;5097867;28;19908;-61
2023/01/26 13:35:28;;;;;;;;;;;11.30;99.90;;;;;;5097305;28;19908;-61
2023/01/26 13:37:54;;;;;;;;;;;11.50;99.40;;;;;;5097662;28;19924;-61
2023/01/26 13:40:27;;;;;;;;;;;11.70;98.50;;;;;;5097889;28;20417;-61
2023/01/26 13:42:52;;;;;;;;;;;11.60;96.10;;;;;;5097820;28;19909;-61
2023/01/26 13:45:37;;;;;;;;;;;11.50;98.20;;;;;;5097356;28;20423;-61
2023/01/26 13:48:05;;;;;;;;;;;11.50;97.10;;;;;;5097757;28;19920;-61
2023/01/26 13:50:33;;;;;;;;;;;11.50;96.50;;;;;;5097791;28;19912;-61
2023/01/26 13:52:59;;;;;;;;;;;11.80;97.30;;;;;;5097567;28;19908;-60
2023/01/26 13:55:26;;;;;;;;;;;12.00;96.30;;;;;;5097370;28;19961;-61
2023/01/26 13:58:10;;;;;;;;;;;11.90;95.40;;;;;;5097712;28;19908;-61
2023/01/26 14:00:36;;;;;;;;;;;12.00;92.00;;;;;;5097280;28;19924;-61
2023/01/26 14:03:01;;;;;;;;;;;11.80;93.30;;;;;;5097452;28;20393;-61
2023/01/26 14:05:27;;;;;;;;;;;11.80;93.50;;;;;;5097364;28;19908;-61
2023/01/26 14:07:53;;;;;;;;;;;12.00;92.20;;;;;;5097455;28;19918;-61
2023/01/26 14:10:19;;;;;;;;;;;12.10;93.60;;;;;;5097578;28;19908;-61
2023/01/26 14:12:46;;;;;;;;;;;12.50;97.00;;;;;;5097958;28;19909;-60
2023/01/26 14:15:31;;;;;;;;;;;12.90;95.60;;;;;;5097545;28;19912;-61
2023/01/26 14:18:01;;;;;;;;;;;12.90;88.40;;;;;;5097193;28;19934;-61
2023/01/26 14:20:32;;;;;;;;;;;12.30;83.50;;;;;;5097922;28;19915;-61
2023/01/26 14:23:17;;;;;;;;;;;12.20;86.50;;;;;;5097484;28;19915;-61
2023/01/26 14:25:47;;;;;;;;;;;12.20;88.00;;;;;;5097291;28;20003;-61
2023/01/26 14:28:14;;;;;;;;;;;12.00;92.70;;;;;;5097603;28;19934;-61
2023/01/26 14:30:40;;;;;;;;;;;11.90;88.60;;;;;;5097496;28;19915;-61
2023/01/26 14:33:13;;;;;;;;;;;11.80;92.10;;;;;;5097343;28;19930;-61
2023/01/26 14:35:40;;;;;;;;;;;11.70;90.40;;;;;;5097767;28;20368;-61
2023/01/26 14:38:11;;;;;;;;;;;11.60;91.40;;;;;;5097157;28;19908;-61
2023/01/26 14:40:46;;;;;;;;;;;11.50;87.20;;;;;;5097578;28;19908;-60
2023/01/26 14:43:12;;;;;;;;;;;11.20;89.80;;;;;;5097302;28;20322;-61
2023/01/26 14:45:39;;;;;;;;;;;11.20;91.80;;;;;;5097200;28;19916;-60
2023/01/26 14:48:07;;;;;;;;;;;11.60;92.60;;;;;;5100728;28;19919;-61
2023/01/26 14:50:34;;;;;;;;;;;11.80;84.60;;;;;;5101373;28;19999;-61
2023/01/26 14:53:01;;;;;;;;;;;12.10;88.60;;;;;;5101135;28;19908;-61
2023/01/26 14:55:31;;;;;;;;;;;12.70;93.70;;;;;;5100687;28;20360;-61
2023/01/26 14:57:57;;;;;;;;;;;12.80;84.80;;;;;;5100542;28;19974;-61
2023/01/26 15:00:27;;;;;;;;;;;12.40;82.30;;;;;;5100642;28;20395;-61
2023/01/26 15:02:54;;;;;;;;;;;12.10;79.60;;;;;;5100799;28;19908;-61
2023/01/26 15:05:21;;;;;;;;;;;11.90;83.40;;;;;;5100635;28;19946;-62
2023/01/26 15:07:54;;;;;;;;;;;11.70;87.50;;;;;;5100375;28;19935;-61
2023/01/26 15:10:29;;;;;;;;;;;11.40;80.60;;;;;;5100468;28;19953;-61
2023/01/26 15:13:01;;;;;;;;;;;11.20;81.20;;;;;;5100776;28;19908;-61
2023/01/26 15:15:28;;;;;;;;;;;11.00;84.10;;;;;;5100867;28;20003;-61
2023/01/26 15:18:01;;;;;;;;;;;10.90;88.80;;;;;;5100042;28;20360;-61